Girard, GA (30426)

11:32 AM EST on February 11, 2016 (GMT -0500)
South Waynesboro Ga. | | Change Station
CLOSE
Current Station
Personal Weather Station
Location: Waynesboro, GA
Elevation: 302 ft
Nearby Weather Stations

Elev 302 ft 33.06 °N, 82.00 °W | Updated 12 minutes ago

Clear
Clear
46.9 °F
Feels Like 47 °F
N
1.7
Wind Variable Wind from SSE

Today
High -- | Low -- °F
--% Chance of Precip.
Yesterday
High -- | Low -- °F
Precip. -- in
Pressure 30.25 in
Visibility 10.0 miles
Clouds Clear
Windchill 47 °F
Dew Point 20 °F
Humidity 34%
Rainfall 0.00 in
Snow Depth Not available.
7:14 AM 6:07 PM
Waxing Crescent, 13% visible
METAR KAGS 111553Z 35004KT 10SM CLR 08/M09 A3024 RMK AO2 SLP242 T00781094
Pressure 30.25 in
Visibility 10.0 miles
Clouds Clear
Windchill 47 °F
Dew Point 20 °F
Humidity 34%
Rainfall 0.00 in
Snow Depth Not available.
7:14 AM 6:07 PM
Waxing Crescent, 13% visible
METAR KAGS 111553Z 35004KT 10SM CLR 08/M09 A3024 RMK AO2 SLP242 T00781094

10-Day Weather Forecast

Almanac

Astronomy

Feb. 11, 2016 Rise Set
Actual Time
Civil Twilight
Nautical Twilight
Astronomical Twilight
Moon
Length of Visible Light
Length of Day
Tomorrow will be .
, % of the Moon is Illuminated

Today's Extremes

State Highs State Lows

Community

WunderPhotos

Upload Photos

1,892,095 photos uploaded!

WunderBlog® & News

Nearby

Air Quality

  Air Quality AQ Index Pollutant
Not available.

Snow Depth

Station Depth Elevation

Earthquake Activity

City Distance Mag. Time & Date
Minimum magnitude displayed is 2.5.

Coastal Water Temperatures

Place Temperature

Stations

Nearby Weather Stations

Station Location Temp. Windchill Dew Point Humidity Wind Precip. Elev Updated Type
                   

Watches & Warnings

There are currently no watches in effect.